sensor_id;sensor_type;location;lat;lon;timestamp;P1;durP1;ratioP1;P2;durP2;ratioP2
13999;SDS011;7075;53.574;10.054;2023-02-26T00:01:27;220.45;;;209.57;;
13999;SDS011;7075;53.574;10.054;2023-02-26T00:03:56;234.48;;;222.73;;
13999;SDS011;7075;53.574;10.054;2023-02-26T00:06:25;241.00;;;229.20;;
13999;SDS011;7075;53.574;10.054;2023-02-26T00:08:51;221.30;;;210.37;;
13999;SDS011;7075;53.574;10.054;2023-02-26T00:11:17;256.47;;;243.73;;
13999;SDS011;7075;53.574;10.054;2023-02-26T00:13:43;210.40;;;199.95;;
13999;SDS011;7075;53.574;10.054;2023-02-26T00:18:42;212.70;;;202.03;;
13999;SDS011;7075;53.574;10.054;2023-02-26T00:21:13;221.20;;;210.18;;
13999;SDS011;7075;53.574;10.054;2023-02-26T00:23:43;246.77;;;234.43;;
13999;SDS011;7075;53.574;10.054;2023-02-26T00:26:09;252.25;;;239.73;;
13999;SDS011;7075;53.574;10.054;2023-02-26T00:28:36;252.90;;;240.32;;
13999;SDS011;7075;53.574;10.054;2023-02-26T00:31:04;267.87;;;254.60;;
13999;SDS011;7075;53.574;10.054;2023-02-26T00:33:30;291.48;;;276.88;;
13999;SDS011;7075;53.574;10.054;2023-02-26T00:36:20;350.02;;;332.60;;
13999;SDS011;7075;53.574;10.054;2023-02-26T00:39:25;362.07;;;343.73;;
13999;SDS011;7075;53.574;10.054;2023-02-26T00:41:37;321.70;;;305.75;;
13999;SDS011;7075;53.574;10.054;2023-02-26T00:44:05;310.15;;;294.67;;
13999;SDS011;7075;53.574;10.054;2023-02-26T00:51:54;283.33;;;269.13;;
13999;SDS011;7075;53.574;10.054;2023-02-26T00:54:26;303.27;;;288.02;;
13999;SDS011;7075;53.574;10.054;2023-02-26T00:56:54;296.58;;;281.65;;
13999;SDS011;7075;53.574;10.054;2023-02-26T00:59:21;323.85;;;307.45;;
13999;SDS011;7075;53.574;10.054;2023-02-26T01:01:51;323.85;;;307.60;;
13999;SDS011;7075;53.574;10.054;2023-02-26T01:04:18;313.15;;;297.35;;
13999;SDS011;7075;53.574;10.054;2023-02-26T01:06:46;307.53;;;292.17;;
13999;SDS011;7075;53.574;10.054;2023-02-26T01:09:24;290.95;;;276.55;;
13999;SDS011;7075;53.574;10.054;2023-02-26T01:11:57;290.87;;;276.63;;
13999;SDS011;7075;53.574;10.054;2023-02-26T01:14:25;349.42;;;331.88;;
13999;SDS011;7075;53.574;10.054;2023-02-26T01:16:58;325.95;;;309.40;;
13999;SDS011;7075;53.574;10.054;2023-02-26T01:19:30;328.60;;;311.77;;
13999;SDS011;7075;53.574;10.054;2023-02-26T01:22:20;336.08;;;319.15;;
13999;SDS011;7075;53.574;10.054;2023-02-26T01:24:51;351.88;;;334.13;;
13999;SDS011;7075;53.574;10.054;2023-02-26T01:27:23;365.65;;;347.00;;
13999;SDS011;7075;53.574;10.054;2023-02-26T01:29:49;382.35;;;362.88;;
13999;SDS011;7075;53.574;10.054;2023-02-26T01:32:18;397.30;;;376.88;;
13999;SDS011;7075;53.574;10.054;2023-02-26T01:37:57;388.20;;;368.23;;
13999;SDS011;7075;53.574;10.054;2023-02-26T01:43:09;372.40;;;353.23;;
13999;SDS011;7075;53.574;10.054;2023-02-26T01:45:49;384.13;;;364.53;;
13999;SDS011;7075;53.574;10.054;2023-02-26T01:48:31;381.70;;;362.20;;
13999;SDS011;7075;53.574;10.054;2023-02-26T01:51:07;401.90;;;381.23;;
13999;SDS011;7075;53.574;10.054;2023-02-26T01:53:33;435.25;;;412.23;;
13999;SDS011;7075;53.574;10.054;2023-02-26T01:55:59;474.47;;;449.00;;
13999;SDS011;7075;53.574;10.054;2023-02-26T01:58:29;463.45;;;439.23;;
13999;SDS011;7075;53.574;10.054;2023-02-26T02:01:00;468.02;;;443.30;;
13999;SDS011;7075;53.574;10.054;2023-02-26T02:03:26;455.35;;;431.15;;
13999;SDS011;7075;53.574;10.054;2023-02-26T02:05:57;456.80;;;432.55;;
13999;SDS011;7075;53.574;10.054;2023-02-26T02:08:28;466.63;;;441.88;;
13999;SDS011;7075;53.574;10.054;2023-02-26T02:10:57;449.17;;;425.67;;
13999;SDS011;7075;53.574;10.054;2023-02-26T02:13:32;410.60;;;389.35;;
13999;SDS011;7075;53.574;10.054;2023-02-26T02:16:20;457.23;;;432.88;;
13999;SDS011;7075;53.574;10.054;2023-02-26T02:28:05;425.50;;;403.10;;
13999;SDS011;7075;53.574;10.054;2023-02-26T02:30:53;436.95;;;413.92;;
13999;SDS011;7075;53.574;10.054;2023-02-26T02:33:29;431.95;;;409.13;;
13999;SDS011;7075;53.574;10.054;2023-02-26T02:36:00;434.67;;;411.70;;
13999;SDS011;7075;53.574;10.054;2023-02-26T02:38:36;430.87;;;408.43;;
13999;SDS011;7075;53.574;10.054;2023-02-26T02:41:08;395.52;;;375.17;;
13999;SDS011;7075;53.574;10.054;2023-02-26T02:43:39;403.38;;;382.52;;
13999;SDS011;7075;53.574;10.054;2023-02-26T02:46:08;412.00;;;390.65;;
13999;SDS011;7075;53.574;10.054;2023-02-26T02:51:09;407.90;;;386.77;;
13999;SDS011;7075;53.574;10.054;2023-02-26T02:53:48;401.88;;;381.23;;
13999;SDS011;7075;53.574;10.054;2023-02-26T02:56:18;399.05;;;378.67;;
13999;SDS011;7075;53.574;10.054;2023-02-26T02:59:00;423.02;;;400.70;;
13999;SDS011;7075;53.574;10.054;2023-02-26T03:02:12;405.92;;;384.88;;
13999;SDS011;7075;53.574;10.054;2023-02-26T03:04:34;398.60;;;377.92;;
13999;SDS011;7075;53.574;10.054;2023-02-26T03:07:01;400.00;;;379.30;;
13999;SDS011;7075;53.574;10.054;2023-02-26T03:09:26;386.50;;;366.33;;
13999;SDS011;7075;53.574;10.054;2023-02-26T03:11:52;370.67;;;351.40;;
13999;SDS011;7075;53.574;10.054;2023-02-26T03:14:18;378.20;;;358.60;;
13999;SDS011;7075;53.574;10.054;2023-02-26T03:16:55;376.55;;;356.83;;
13999;SDS011;7075;53.574;10.054;2023-02-26T03:19:29;363.52;;;344.65;;
13999;SDS011;7075;53.574;10.054;2023-02-26T03:24:42;357.85;;;339.05;;
13999;SDS011;7075;53.574;10.054;2023-02-26T03:27:33;378.50;;;358.85;;
13999;SDS011;7075;53.574;10.054;2023-02-26T03:30:13;362.05;;;343.23;;
13999;SDS011;7075;53.574;10.054;2023-02-26T03:35:48;376.70;;;357.20;;
13999;SDS011;7075;53.574;10.054;2023-02-26T03:38:34;384.80;;;364.92;;
13999;SDS011;7075;53.574;10.054;2023-02-26T03:41:07;379.25;;;359.38;;
13999;SDS011;7075;53.574;10.054;2023-02-26T03:46:03;396.77;;;376.23;;
13999;SDS011;7075;53.574;10.054;2023-02-26T03:48:31;359.20;;;340.98;;
13999;SDS011;7075;53.574;10.054;2023-02-26T03:51:00;376.25;;;356.85;;
13999;SDS011;7075;53.574;10.054;2023-02-26T03:53:41;355.13;;;336.70;;
13999;SDS011;7075;53.574;10.054;2023-02-26T03:58:49;337.58;;;320.42;;
13999;SDS011;7075;53.574;10.054;2023-02-26T04:01:17;324.40;;;308.23;;
13999;SDS011;7075;53.574;10.054;2023-02-26T04:06:24;309.05;;;293.60;;
13999;SDS011;7075;53.574;10.054;2023-02-26T04:08:50;313.48;;;298.00;;
13999;SDS011;7075;53.574;10.054;2023-02-26T04:11:17;311.98;;;296.73;;
13999;SDS011;7075;53.574;10.054;2023-02-26T04:13:45;306.58;;;291.55;;
13999;SDS011;7075;53.574;10.054;2023-02-26T04:16:11;302.83;;;287.83;;
13999;SDS011;7075;53.574;10.054;2023-02-26T04:18:38;298.83;;;284.10;;
13999;SDS011;7075;53.574;10.054;2023-02-26T04:21:04;284.75;;;270.85;;
13999;SDS011;7075;53.574;10.054;2023-02-26T04:23:30;297.30;;;282.73;;
13999;SDS011;7075;53.574;10.054;2023-02-26T04:25:56;273.07;;;259.70;;
13999;SDS011;7075;53.574;10.054;2023-02-26T04:28:21;272.40;;;258.87;;
13999;SDS011;7075;53.574;10.054;2023-02-26T04:30:47;286.90;;;272.58;;
13999;SDS011;7075;53.574;10.054;2023-02-26T04:33:13;256.83;;;244.20;;
13999;SDS011;7075;53.574;10.054;2023-02-26T04:35:40;278.55;;;264.73;;
13999;SDS011;7075;53.574;10.054;2023-02-26T04:38:06;271.20;;;257.63;;
13999;SDS011;7075;53.574;10.054;2023-02-26T04:40:32;259.50;;;246.57;;
13999;SDS011;7075;53.574;10.054;2023-02-26T04:42:57;261.07;;;247.93;;
13999;SDS011;7075;53.574;10.054;2023-02-26T04:45:23;266.20;;;252.83;;
13999;SDS011;7075;53.574;10.054;2023-02-26T04:47:48;252.95;;;240.20;;
13999;SDS011;7075;53.574;10.054;2023-02-26T04:50:14;236.15;;;224.45;;
13999;SDS011;7075;53.574;10.054;2023-02-26T04:52:39;247.68;;;235.30;;
13999;SDS011;7075;53.574;10.054;2023-02-26T04:55:05;234.07;;;222.53;;
13999;SDS011;7075;53.574;10.054;2023-02-26T04:57:31;245.07;;;232.85;;
13999;SDS011;7075;53.574;10.054;2023-02-26T04:59:57;253.52;;;241.02;;
13999;SDS011;7075;53.574;10.054;2023-02-26T05:02:23;256.30;;;243.55;;
13999;SDS011;7075;53.574;10.054;2023-02-26T05:04:49;253.52;;;240.80;;
13999;SDS011;7075;53.574;10.054;2023-02-26T05:07:14;249.05;;;236.82;;
13999;SDS011;7075;53.574;10.054;2023-02-26T05:09:40;256.08;;;243.27;;
13999;SDS011;7075;53.574;10.054;2023-02-26T05:12:05;233.67;;;221.90;;
13999;SDS011;7075;53.574;10.054;2023-02-26T05:14:31;237.30;;;225.60;;
13999;SDS011;7075;53.574;10.054;2023-02-26T05:16:57;243.53;;;231.37;;
13999;SDS011;7075;53.574;10.054;2023-02-26T05:19:22;222.23;;;211.13;;
13999;SDS011;7075;53.574;10.054;2023-02-26T05:21:48;237.02;;;225.35;;
13999;SDS011;7075;53.574;10.054;2023-02-26T05:24:14;230.57;;;219.20;;
13999;SDS011;7075;53.574;10.054;2023-02-26T05:26:40;216.98;;;206.23;;
13999;SDS011;7075;53.574;10.054;2023-02-26T05:29:05;227.73;;;216.60;;
13999;SDS011;7075;53.574;10.054;2023-02-26T05:31:31;225.60;;;214.23;;
13999;SDS011;7075;53.574;10.054;2023-02-26T05:33:56;231.13;;;219.75;;
13999;SDS011;7075;53.574;10.054;2023-02-26T05:36:22;238.03;;;226.23;;
13999;SDS011;7075;53.574;10.054;2023-02-26T05:38:47;239.97;;;228.27;;
13999;SDS011;7075;53.574;10.054;2023-02-26T05:41:13;258.55;;;245.63;;
13999;SDS011;7075;53.574;10.054;2023-02-26T05:43:38;237.17;;;225.43;;
13999;SDS011;7075;53.574;10.054;2023-02-26T05:46:04;248.30;;;236.13;;
13999;SDS011;7075;53.574;10.054;2023-02-26T05:48:30;250.27;;;238.07;;
13999;SDS011;7075;53.574;10.054;2023-02-26T05:50:55;266.42;;;253.30;;
13999;SDS011;7075;53.574;10.054;2023-02-26T05:53:21;270.05;;;256.70;;
13999;SDS011;7075;53.574;10.054;2023-02-26T05:55:47;268.13;;;254.70;;
13999;SDS011;7075;53.574;10.054;2023-02-26T05:58:12;198.25;;;188.23;;
13999;SDS011;7075;53.574;10.054;2023-02-26T06:00:39;205.32;;;195.30;;
13999;SDS011;7075;53.574;10.054;2023-02-26T06:03:05;221.75;;;210.80;;
13999;SDS011;7075;53.574;10.054;2023-02-26T06:05:30;224.47;;;213.43;;
13999;SDS011;7075;53.574;10.054;2023-02-26T06:07:56;235.10;;;223.60;;
13999;SDS011;7075;53.574;10.054;2023-02-26T06:10:22;220.53;;;209.60;;
13999;SDS011;7075;53.574;10.054;2023-02-26T06:12:47;229.70;;;218.43;;
13999;SDS011;7075;53.574;10.054;2023-02-26T06:15:13;239.18;;;227.20;;
13999;SDS011;7075;53.574;10.054;2023-02-26T06:17:38;221.75;;;210.80;;
13999;SDS011;7075;53.574;10.054;2023-02-26T06:20:04;217.70;;;207.13;;
13999;SDS011;7075;53.574;10.054;2023-02-26T06:22:31;219.27;;;208.32;;
13999;SDS011;7075;53.574;10.054;2023-02-26T06:24:56;223.27;;;212.40;;
13999;SDS011;7075;53.574;10.054;2023-02-26T06:27:22;232.43;;;221.07;;
13999;SDS011;7075;53.574;10.054;2023-02-26T06:29:48;208.32;;;198.10;;
13999;SDS011;7075;53.574;10.054;2023-02-26T06:32:14;207.23;;;197.17;;
13999;SDS011;7075;53.574;10.054;2023-02-26T06:34:39;215.63;;;205.10;;
13999;SDS011;7075;53.574;10.054;2023-02-26T06:37:05;220.53;;;209.60;;
13999;SDS011;7075;53.574;10.054;2023-02-26T06:39:31;211.47;;;201.07;;
13999;SDS011;7075;53.574;10.054;2023-02-26T06:41:56;213.55;;;202.70;;
13999;SDS011;7075;53.574;10.054;2023-02-26T06:44:22;197.73;;;188.05;;
13999;SDS011;7075;53.574;10.054;2023-02-26T06:46:48;203.80;;;193.57;;
13999;SDS011;7075;53.574;10.054;2023-02-26T06:49:13;192.53;;;182.83;;
13999;SDS011;7075;53.574;10.054;2023-02-26T06:51:39;202.30;;;192.27;;
13999;SDS011;7075;53.574;10.054;2023-02-26T06:54:04;203.45;;;193.23;;
13999;SDS011;7075;53.574;10.054;2023-02-26T06:56:30;197.77;;;187.88;;
13999;SDS011;7075;53.574;10.054;2023-02-26T06:58:55;205.15;;;195.13;;
13999;SDS011;7075;53.574;10.054;2023-02-26T07:01:21;206.30;;;196.00;;
13999;SDS011;7075;53.574;10.054;2023-02-26T07:03:48;224.30;;;213.32;;
13999;SDS011;7075;53.574;10.054;2023-02-26T07:06:14;188.03;;;178.80;;
13999;SDS011;7075;53.574;10.054;2023-02-26T07:08:40;207.25;;;196.95;;
13999;SDS011;7075;53.574;10.054;2023-02-26T07:11:06;209.77;;;199.38;;
13999;SDS011;7075;53.574;10.054;2023-02-26T07:13:32;215.43;;;204.57;;
13999;SDS011;7075;53.574;10.054;2023-02-26T07:15:58;202.38;;;192.30;;
13999;SDS011;7075;53.574;10.054;2023-02-26T07:18:24;199.25;;;189.10;;
13999;SDS011;7075;53.574;10.054;2023-02-26T07:20:49;201.07;;;191.13;;
13999;SDS011;7075;53.574;10.054;2023-02-26T07:23:15;213.90;;;203.27;;
13999;SDS011;7075;53.574;10.054;2023-02-26T07:25:41;225.07;;;213.97;;
13999;SDS011;7075;53.574;10.054;2023-02-26T07:28:07;227.90;;;216.50;;
13999;SDS011;7075;53.574;10.054;2023-02-26T07:30:32;242.73;;;230.83;;
13999;SDS011;7075;53.574;10.054;2023-02-26T07:32:58;216.93;;;206.20;;
13999;SDS011;7075;53.574;10.054;2023-02-26T07:35:24;254.68;;;242.15;;
13999;SDS011;7075;53.574;10.054;2023-02-26T07:37:50;249.32;;;237.10;;
13999;SDS011;7075;53.574;10.054;2023-02-26T07:40:16;256.30;;;243.57;;
13999;SDS011;7075;53.574;10.054;2023-02-26T07:42:42;249.25;;;236.93;;
13999;SDS011;7075;53.574;10.054;2023-02-26T07:45:07;259.95;;;247.15;;
13999;SDS011;7075;53.574;10.054;2023-02-26T07:47:33;233.63;;;222.05;;
13999;SDS011;7075;53.574;10.054;2023-02-26T07:49:59;234.70;;;223.02;;
13999;SDS011;7075;53.574;10.054;2023-02-26T07:52:25;259.67;;;246.98;;
13999;SDS011;7075;53.574;10.054;2023-02-26T07:54:51;255.05;;;242.35;;
13999;SDS011;7075;53.574;10.054;2023-02-26T07:57:17;256.17;;;243.57;;
13999;SDS011;7075;53.574;10.054;2023-02-26T07:59:43;270.98;;;257.60;;
13999;SDS011;7075;53.574;10.054;2023-02-26T08:02:09;272.75;;;259.15;;
13999;SDS011;7075;53.574;10.054;2023-02-26T08:04:35;267.10;;;254.00;;
13999;SDS011;7075;53.574;10.054;2023-02-26T08:07:01;285.65;;;271.60;;
13999;SDS011;7075;53.574;10.054;2023-02-26T08:09:27;273.65;;;260.23;;
13999;SDS011;7075;53.574;10.054;2023-02-26T08:11:52;284.43;;;270.50;;
13999;SDS011;7075;53.574;10.054;2023-02-26T08:14:18;277.00;;;263.27;;
13999;SDS011;7075;53.574;10.054;2023-02-26T08:16:44;280.03;;;266.27;;
13999;SDS011;7075;53.574;10.054;2023-02-26T08:19:09;292.60;;;278.17;;
13999;SDS011;7075;53.574;10.054;2023-02-26T08:21:35;289.23;;;275.07;;
13999;SDS011;7075;53.574;10.054;2023-02-26T08:24:01;297.42;;;282.80;;
13999;SDS011;7075;53.574;10.054;2023-02-26T08:26:26;298.00;;;283.27;;
13999;SDS011;7075;53.574;10.054;2023-02-26T08:28:53;291.20;;;276.73;;
13999;SDS011;7075;53.574;10.054;2023-02-26T08:31:18;277.30;;;263.40;;
13999;SDS011;7075;53.574;10.054;2023-02-26T08:33:44;288.30;;;273.93;;
13999;SDS011;7075;53.574;10.054;2023-02-26T08:36:10;313.03;;;297.60;;
13999;SDS011;7075;53.574;10.054;2023-02-26T08:38:36;315.10;;;299.38;;
13999;SDS011;7075;53.574;10.054;2023-02-26T08:41:02;298.48;;;283.67;;
13999;SDS011;7075;53.574;10.054;2023-02-26T08:43:28;310.52;;;294.98;;
13999;SDS011;7075;53.574;10.054;2023-02-26T08:45:54;317.17;;;301.63;;
13999;SDS011;7075;53.574;10.054;2023-02-26T08:48:22;319.35;;;303.50;;
13999;SDS011;7075;53.574;10.054;2023-02-26T08:50:48;322.65;;;306.73;;
13999;SDS011;7075;53.574;10.054;2023-02-26T08:53:14;336.33;;;319.55;;
13999;SDS011;7075;53.574;10.054;2023-02-26T08:55:40;332.52;;;315.65;;
13999;SDS011;7075;53.574;10.054;2023-02-26T08:58:08;336.05;;;319.27;;
13999;SDS011;7075;53.574;10.054;2023-02-26T09:00:34;313.33;;;297.60;;
13999;SDS011;7075;53.574;10.054;2023-02-26T09:03:00;304.80;;;289.70;;
13999;SDS011;7075;53.574;10.054;2023-02-26T09:05:25;355.38;;;337.45;;
13999;SDS011;7075;53.574;10.054;2023-02-26T09:07:57;414.30;;;393.03;;
13999;SDS011;7075;53.574;10.054;2023-02-26T09:10:23;423.43;;;401.67;;
13999;SDS011;7075;53.574;10.054;2023-02-26T09:12:51;423.10;;;401.43;;
13999;SDS011;7075;53.574;10.054;2023-02-26T09:15:17;414.93;;;393.43;;
13999;SDS011;7075;53.574;10.054;2023-02-26T09:17:43;422.70;;;400.85;;
13999;SDS011;7075;53.574;10.054;2023-02-26T09:20:09;410.08;;;389.05;;
13999;SDS011;7075;53.574;10.054;2023-02-26T09:22:36;393.55;;;373.50;;
13999;SDS011;7075;53.574;10.054;2023-02-26T09:25:02;316.75;;;301.02;;
13999;SDS011;7075;53.574;10.054;2023-02-26T09:27:29;275.48;;;262.00;;
13999;SDS011;7075;53.574;10.054;2023-02-26T09:29:55;231.10;;;219.93;;
13999;SDS011;7075;53.574;10.054;2023-02-26T09:32:21;201.68;;;191.75;;
13999;SDS011;7075;53.574;10.054;2023-02-26T09:34:46;190.23;;;180.90;;
13999;SDS011;7075;53.574;10.054;2023-02-26T09:37:13;199.93;;;190.15;;
13999;SDS011;7075;53.574;10.054;2023-02-26T09:39:38;200.13;;;190.32;;
13999;SDS011;7075;53.574;10.054;2023-02-26T09:42:19;206.60;;;196.63;;
13999;SDS011;7075;53.574;10.054;2023-02-26T09:45:10;183.40;;;174.20;;
13999;SDS011;7075;53.574;10.054;2023-02-26T09:47:45;198.23;;;188.52;;
13999;SDS011;7075;53.574;10.054;2023-02-26T09:52:55;154.70;;;147.03;;
13999;SDS011;7075;53.574;10.054;2023-02-26T09:55:34;132.15;;;125.75;;
13999;SDS011;7075;53.574;10.054;2023-02-26T09:58:11;136.80;;;129.93;;
13999;SDS011;7075;53.574;10.054;2023-02-26T10:11:45;131.75;;;125.22;;
13999;SDS011;7075;53.574;10.054;2023-02-26T10:14:22;154.38;;;146.82;;
13999;SDS011;7075;53.574;10.054;2023-02-26T10:16:54;148.53;;;141.27;;
13999;SDS011;7075;53.574;10.054;2023-02-26T10:19:28;116.80;;;111.10;;
13999;SDS011;7075;53.574;10.054;2023-02-26T10:22:04;100.85;;;95.88;;
13999;SDS011;7075;53.574;10.054;2023-02-26T10:24:43;140.70;;;133.80;;
13999;SDS011;7075;53.574;10.054;2023-02-26T10:27:16;148.02;;;140.73;;
13999;SDS011;7075;53.574;10.054;2023-02-26T10:35:10;85.53;;;81.40;;
13999;SDS011;7075;53.574;10.054;2023-02-26T10:38:16;88.65;;;84.28;;
13999;SDS011;7075;53.574;10.054;2023-02-26T10:40:43;84.32;;;80.20;;
13999;SDS011;7075;53.574;10.054;2023-02-26T10:43:37;86.00;;;81.78;;
13999;SDS011;7075;53.574;10.054;2023-02-26T10:46:21;89.32;;;84.93;;
13999;SDS011;7075;53.574;10.054;2023-02-26T10:49:04;86.53;;;82.22;;
13999;SDS011;7075;53.574;10.054;2023-02-26T10:51:48;80.43;;;76.43;;
13999;SDS011;7075;53.574;10.054;2023-02-26T10:54:26;60.35;;;57.35;;
13999;SDS011;7075;53.574;10.054;2023-02-26T10:57:02;57.33;;;54.45;;
13999;SDS011;7075;53.574;10.054;2023-02-26T10:59:28;67.73;;;64.33;;
13999;SDS011;7075;53.574;10.054;2023-02-26T11:02:01;80.03;;;76.05;;
13999;SDS011;7075;53.574;10.054;2023-02-26T11:04:27;85.22;;;80.93;;
13999;SDS011;7075;53.574;10.054;2023-02-26T11:06:59;81.17;;;77.10;;
13999;SDS011;7075;53.574;10.054;2023-02-26T11:09:33;89.53;;;85.03;;
13999;SDS011;7075;53.574;10.054;2023-02-26T11:14:39;95.35;;;90.55;;
13999;SDS011;7075;53.574;10.054;2023-02-26T11:17:10;109.60;;;104.07;;
13999;SDS011;7075;53.574;10.054;2023-02-26T11:19:41;106.68;;;101.38;;
13999;SDS011;7075;53.574;10.054;2023-02-26T11:22:13;119.35;;;113.38;;
13999;SDS011;7075;53.574;10.054;2023-02-26T11:24:42;93.20;;;88.50;;
13999;SDS011;7075;53.574;10.054;2023-02-26T11:27:16;88.07;;;83.65;;
13999;SDS011;7075;53.574;10.054;2023-02-26T11:29:52;92.88;;;88.22;;
13999;SDS011;7075;53.574;10.054;2023-02-26T11:32:22;93.55;;;88.95;;
13999;SDS011;7075;53.574;10.054;2023-02-26T11:34:54;105.22;;;100.03;;
13999;SDS011;7075;53.574;10.054;2023-02-26T11:37:22;97.27;;;92.50;;
13999;SDS011;7075;53.574;10.054;2023-02-26T11:39:56;116.18;;;110.63;;
13999;SDS011;7075;53.574;10.054;2023-02-26T11:42:24;119.75;;;113.95;;
13999;SDS011;7075;53.574;10.054;2023-02-26T11:44:51;120.97;;;114.97;;
13999;SDS011;7075;53.574;10.054;2023-02-26T11:47:29;131.98;;;125.50;;
13999;SDS011;7075;53.574;10.054;2023-02-26T11:50:00;167.88;;;159.85;;
13999;SDS011;7075;53.574;10.054;2023-02-26T11:52:33;140.10;;;132.95;;
13999;SDS011;7075;53.574;10.054;2023-02-26T11:55:04;133.00;;;126.32;;
13999;SDS011;7075;53.574;10.054;2023-02-26T11:57:41;145.93;;;138.50;;
13999;SDS011;7075;53.574;10.054;2023-02-26T12:00:16;127.60;;;121.05;;
13999;SDS011;7075;53.574;10.054;2023-02-26T12:02:44;126.75;;;120.25;;
13999;SDS011;7075;53.574;10.054;2023-02-26T12:05:09;158.07;;;149.97;;
13999;SDS011;7075;53.574;10.054;2023-02-26T12:07:40;136.38;;;129.40;;
13999;SDS011;7075;53.574;10.054;2023-02-26T12:10:13;126.30;;;119.97;;
13999;SDS011;7075;53.574;10.054;2023-02-26T12:13:30;127.18;;;120.70;;
13999;SDS011;7075;53.574;10.054;2023-02-26T12:18:27;124.53;;;118.18;;
13999;SDS011;7075;53.574;10.054;2023-02-26T12:23:35;169.70;;;161.20;;
13999;SDS011;7075;53.574;10.054;2023-02-26T12:39:51;236.82;;;225.10;;
13999;SDS011;7075;53.574;10.054;2023-02-26T12:45:58;199.35;;;189.50;;
13999;SDS011;7075;53.574;10.054;2023-02-26T12:51:33;174.63;;;166.02;;
13999;SDS011;7075;53.574;10.054;2023-02-26T13:16:15;192.60;;;183.05;;
13999;SDS011;7075;53.574;10.054;2023-02-26T13:21:50;231.98;;;220.85;;
13999;SDS011;7075;53.574;10.054;2023-02-26T13:24:26;256.90;;;243.90;;
13999;SDS011;7075;53.574;10.054;2023-02-26T13:27:00;271.50;;;258.10;;
13999;SDS011;7075;53.574;10.054;2023-02-26T13:29:30;286.50;;;272.63;;
13999;SDS011;7075;53.574;10.054;2023-02-26T13:32:06;268.90;;;255.57;;
13999;SDS011;7075;53.574;10.054;2023-02-26T13:34:42;239.73;;;227.65;;
13999;SDS011;7075;53.574;10.054;2023-02-26T13:37:26;195.73;;;186.00;;
13999;SDS011;7075;53.574;10.054;2023-02-26T13:40:03;180.90;;;172.07;;
13999;SDS011;7075;53.574;10.054;2023-02-26T13:45:20;177.90;;;169.00;;
13999;SDS011;7075;53.574;10.054;2023-02-26T13:48:09;155.52;;;147.75;;
13999;SDS011;7075;53.574;10.054;2023-02-26T13:56:12;131.33;;;124.60;;
13999;SDS011;7075;53.574;10.054;2023-02-26T13:58:48;129.02;;;122.65;;
13999;SDS011;7075;53.574;10.054;2023-02-26T14:01:25;125.05;;;119.05;;
13999;SDS011;7075;53.574;10.054;2023-02-26T14:07:43;136.75;;;130.15;;
13999;SDS011;7075;53.574;10.054;2023-02-26T14:09:44;142.57;;;135.57;;
13999;SDS011;7075;53.574;10.054;2023-02-26T14:14:42;183.57;;;174.48;;
13999;SDS011;7075;53.574;10.054;2023-02-26T14:17:30;184.32;;;175.13;;
13999;SDS011;7075;53.574;10.054;2023-02-26T14:20:24;189.07;;;179.55;;
13999;SDS011;7075;53.574;10.054;2023-02-26T14:22:52;165.80;;;157.60;;
13999;SDS011;7075;53.574;10.054;2023-02-26T14:25:36;168.52;;;160.10;;
13999;SDS011;7075;53.574;10.054;2023-02-26T14:28:18;147.07;;;139.75;;
13999;SDS011;7075;53.574;10.054;2023-02-26T14:30:52;146.75;;;139.55;;
13999;SDS011;7075;53.574;10.054;2023-02-26T14:33:33;158.05;;;150.15;;
13999;SDS011;7075;53.574;10.054;2023-02-26T14:36:53;160.32;;;152.35;;
13999;SDS011;7075;53.574;10.054;2023-02-26T14:39:05;153.75;;;146.10;;
13999;SDS011;7075;53.574;10.054;2023-02-26T14:41:38;148.43;;;141.05;;
13999;SDS011;7075;53.574;10.054;2023-02-26T14:46:42;134.13;;;127.43;;
13999;SDS011;7075;53.574;10.054;2023-02-26T14:49:51;151.02;;;143.48;;
13999;SDS011;7075;53.574;10.054;2023-02-26T15:14:58;110.28;;;104.80;;
13999;SDS011;7075;53.574;10.054;2023-02-26T15:17:43;104.93;;;99.60;;
13999;SDS011;7075;53.574;10.054;2023-02-26T15:25:34;124.63;;;118.53;;
13999;SDS011;7075;53.574;10.054;2023-02-26T15:28:05;129.38;;;122.88;;
13999;SDS011;7075;53.574;10.054;2023-02-26T15:30:37;133.32;;;126.57;;
13999;SDS011;7075;53.574;10.054;2023-02-26T15:33:04;137.00;;;130.13;;
13999;SDS011;7075;53.574;10.054;2023-02-26T15:35:34;142.77;;;135.60;;
13999;SDS011;7075;53.574;10.054;2023-02-26T15:38:01;135.70;;;128.90;;
13999;SDS011;7075;53.574;10.054;2023-02-26T15:40:32;144.55;;;137.40;;
13999;SDS011;7075;53.574;10.054;2023-02-26T15:43:01;143.85;;;136.75;;
13999;SDS011;7075;53.574;10.054;2023-02-26T15:48:13;126.90;;;120.47;;
13999;SDS011;7075;53.574;10.054;2023-02-26T15:50:43;122.63;;;116.47;;
13999;SDS011;7075;53.574;10.054;2023-02-26T15:56:07;112.15;;;106.60;;
13999;SDS011;7075;53.574;10.054;2023-02-26T15:59:03;104.50;;;99.13;;
13999;SDS011;7075;53.574;10.054;2023-02-26T16:01:44;104.50;;;99.30;;
13999;SDS011;7075;53.574;10.054;2023-02-26T16:04:14;101.72;;;96.55;;
13999;SDS011;7075;53.574;10.054;2023-02-26T16:06:47;104.60;;;99.32;;
13999;SDS011;7075;53.574;10.054;2023-02-26T16:09:27;101.68;;;96.45;;
13999;SDS011;7075;53.574;10.054;2023-02-26T16:11:59;91.32;;;86.70;;
13999;SDS011;7075;53.574;10.054;2023-02-26T16:14:38;95.18;;;90.40;;
13999;SDS011;7075;53.574;10.054;2023-02-26T16:17:07;96.10;;;91.10;;
13999;SDS011;7075;53.574;10.054;2023-02-26T16:19:39;86.37;;;82.00;;
13999;SDS011;7075;53.574;10.054;2023-02-26T16:22:26;89.53;;;84.93;;
13999;SDS011;7075;53.574;10.054;2023-02-26T16:25:14;81.40;;;77.30;;
13999;SDS011;7075;53.574;10.054;2023-02-26T16:27:49;90.68;;;86.10;;
13999;SDS011;7075;53.574;10.054;2023-02-26T16:30:23;87.67;;;83.27;;
13999;SDS011;7075;53.574;10.054;2023-02-26T16:32:55;86.60;;;82.20;;
13999;SDS011;7075;53.574;10.054;2023-02-26T16:35:26;81.50;;;77.38;;
13999;SDS011;7075;53.574;10.054;2023-02-26T16:37:59;86.00;;;81.65;;
13999;SDS011;7075;53.574;10.054;2023-02-26T16:40:44;86.90;;;82.40;;
13999;SDS011;7075;53.574;10.054;2023-02-26T16:46:00;88.72;;;83.97;;
13999;SDS011;7075;53.574;10.054;2023-02-26T16:48:32;86.80;;;82.28;;
13999;SDS011;7075;53.574;10.054;2023-02-26T16:51:06;90.13;;;85.47;;
13999;SDS011;7075;53.574;10.054;2023-02-26T16:53:45;87.07;;;82.55;;
13999;SDS011;7075;53.574;10.054;2023-02-26T16:56:29;91.88;;;87.22;;
13999;SDS011;7075;53.574;10.054;2023-02-26T16:59:02;90.63;;;85.95;;
13999;SDS011;7075;53.574;10.054;2023-02-26T17:01:47;94.25;;;89.55;;
13999;SDS011;7075;53.574;10.054;2023-02-26T17:04:29;97.03;;;92.05;;